Svartfoss — V2PR3 — position and weather

sailwx.info

Track history (hours):
 
Tides and Currents Weather Stations Pressure Air Temp Water Temp Dewpoint Dewpoint Depression Visibility Wind Speed Wind Dir Waves Ship Positions

Svartfoss

Last reported at 2015-Jul-02 14:33 UTC. Time now 2015-Jul-06 13:30 UTC.
Position N 69°41' E 018°59'.

Length 80 m; draft 5.6 m.

Type: Cargo ship. MMSI: 304882000.

Date/timePositionNaut miles runAvg speedWind from/ knotsBaromVisibWave heightAir tempDewpointWater temp
2015-Jul-02 14:33N 69°41' E 018°59'1 0.6
2015-Jul-02 13:33N 69°40' E 018°59'1 0.8
2015-Jul-02 12:33N 69°39' E 018°58'206 7.0
2015-Jul-01 07:13N 66°57' E 013°19'14 3.8
2015-Jul-01 03:25N 66°43' E 013°06'1314.3
2015-Jul-01 02:33N 66°38' E 012°37'1413.8
2015-Jul-01 01:33N 66°30' E 012°10'2 2.0
2015-Jul-01 00:33N 66°30' E 012°05'1110.7
2015-Jun-30 23:33N 66°25' E 012°30'65 5.8
2015-Jun-30 12:21N 65°21' E 012°03'1214.3
2015-Jun-30 11:30N 65°10' E 011°51'1313.9
2015-Jun-30 10:33N 64°59' E 011°35'1111.4
2015-Jun-30 09:33N 64°52' E 011°14'0 0.0
2015-Jun-30 08:33N 64°52' E 011°14'5412.8
2015-Jun-30 04:21N 64°07' E 010°03'1013.0
2015-Jun-30 03:33N 63°60' E 009°47'1212.3
2015-Jun-30 02:33N 63°48' E 009°36'1 1.2
2015-Jun-30 01:33N 63°49' E 009°38'0 0.0
2015-Jun-30 00:33N 63°49' E 009°38'0 0.0
2015-Jun-29 23:33N 63°49' E 009°38'0 0.0
2015-Jun-29 22:33N 63°49' E 009°38'0 0.0
2015-Jun-29 21:09N 63°49' E 009°38'0 0.7
2015-Jun-29 20:33N 63°49' E 009°38'1613.0
2015-Jun-29 19:22N 63°34' E 009°24'5314.0
2015-Jun-29 15:33N 63°06' E 007°43'1 0.8
2015-Jun-29 14:33N 63°07' E 007°44'0 0.0
2015-Jun-29 13:33N 63°07' E 007°44'0 0.0
2015-Jun-29 12:33N 63°07' E 007°44'0 0.0
2015-Jun-29 11:34N 63°07' E 007°44'243 6.4
2015-Jun-27 21:33N 59°14' E 005°21'1413.7
2015-Jun-27 20:33N 59°03' E 005°36'1010.4
2015-Jun-27 19:33N 58°53' E 005°46'2 2.0
2015-Jun-27 18:34N 58°52' E 005°45'0 0.3
2015-Jun-27 17:33N 58°51' E 005°45'2 2.4
2015-Jun-27 16:33N 58°54' E 005°46'9 9.3
2015-Jun-27 15:33N 59°02' E 005°37'6 6.4
2015-Jun-27 14:32N 58°55' E 005°36'0 0.0
2015-Jun-27 13:24N 58°55' E 005°36'0 0.0
2015-Jun-27 12:32N 58°55' E 005°36'0 0.0
2015-Jun-27 11:23N 58°55' E 005°36'1 0.9
2015-Jun-27 10:28N 58°56' E 005°35'26613.1
2015-Jun-26 14:14N 57°09' W 002°05'0 0.0
2015-Jun-26 13:26N 57°09' W 002°05'0 0.0
2015-Jun-26 10:26N 57°09' W 002°05'0 0.0
2015-Jun-26 09:26N 57°09' W 002°05'0 0.0
2015-Jun-26 08:08N 57°09' W 002°05'0 0.0
2015-Jun-26 07:26N 57°09' W 002°05'16013.5
2015-Jun-25 19:33N 54°41' W 000°19'1414.4
2015-Jun-25 18:33N 54°27' W 000°10'1514.8
2015-Jun-25 17:33N 54°13' W 000°00'1515.2
2015-Jun-25 16:33N 53°59' E 000°09'2713.1
2015-Jun-25 14:31N 53°33' E 000°12'1414.3
2015-Jun-25 13:33N 53°38' W 000°10'1 1.3
2015-Jun-25 12:34N 53°38' W 000°12'0 0.0
2015-Jun-25 11:32N 53°38' W 000°12'0 0.0
2015-Jun-25 10:32N 53°38' W 000°12'0 0.0
2015-Jun-25 09:32N 53°38' W 000°12'0 0.0
2015-Jun-25 08:29N 53°38' W 000°12'0 0.0
2015-Jun-25 07:31N 53°38' W 000°12'0 0.0
2015-Jun-25 06:31N 53°38' W 000°12'0 0.0
2015-Jun-25 05:31N 53°38' W 000°12'0 0.0
2015-Jun-25 04:31N 53°38' W 000°12'0 0.0
2015-Jun-25 03:31N 53°38' W 000°12'0 0.0
2015-Jun-25 02:31N 53°38' W 000°12'0 0.0
2015-Jun-25 01:31N 53°38' W 000°12'0 0.0
2015-Jun-25 00:31N 53°38' W 000°12'0 0.0
2015-Jun-24 23:31N 53°38' W 000°12'0 0.0
2015-Jun-24 22:31N 53°38' W 000°12'0 0.0
2015-Jun-24 21:31N 53°38' W 000°12'0 0.0
2015-Jun-24 20:31N 53°38' W 000°12'0 0.0
2015-Jun-24 19:31N 53°38' W 000°12'0 0.0
2015-Jun-24 18:28N 53°38' W 000°12'0 0.0
2015-Jun-24 17:28N 53°38' W 000°12'0 0.0
2015-Jun-24 16:28N 53°38' W 000°12'0 0.0
2015-Jun-24 15:31N 53°38' W 000°12'0 0.0
2015-Jun-24 14:31N 53°38' W 000°12'0 0.0
2015-Jun-24 13:31N 53°38' W 000°12'0 0.0
2015-Jun-24 12:25N 53°38' W 000°12'0 0.0
2015-Jun-24 11:31N 53°38' W 000°12'0 0.0
2015-Jun-24 10:29N 53°38' W 000°12'0 0.0
2015-Jun-24 09:31N 53°38' W 000°12'0 0.0
2015-Jun-24 08:31N 53°38' W 000°12'0 0.0
2015-Jun-24 07:31N 53°38' W 000°12'0 0.0
2015-Jun-24 06:31N 53°38' W 000°12'0 0.0
2015-Jun-24 05:31N 53°38' W 000°12'0 0.0
2015-Jun-24 04:31N 53°38' W 000°12'0 0.0
2015-Jun-24 03:31N 53°38' W 000°12'0 0.0
2015-Jun-24 02:31N 53°38' W 000°12'0 0.0
2015-Jun-24 01:31N 53°38' W 000°12'0 0.0
2015-Jun-24 00:34N 53°38' W 000°12'0 0.0
2015-Jun-23 23:34N 53°38' W 000°12'0 0.0
2015-Jun-23 22:33N 53°38' W 000°12'0 0.0
2015-Jun-23 21:30N 53°38' W 000°12'0 0.0
2015-Jun-23 20:33N 53°38' W 000°12'0 0.0
2015-Jun-23 19:27N 53°38' W 000°12'0 0.0
2015-Jun-23 19:03N 53°38' W 000°12'189 8.0
2015-Jun-22 19:31N 52°28' E 004°40'0 0.0
2015-Jun-22 18:31N 52°28' E 004°40'0 0.0
2015-Jun-22 17:31N 52°28' E 004°40'0 0.0
2015-Jun-22 16:31N 52°28' E 004°40'0 0.0
2015-Jun-22 15:31N 52°28' E 004°40'  
Track history (hours):
 
Tides and Currents Weather Stations Pressure Air Temp Water Temp Dewpoint Dewpoint Depression Visibility Wind Speed Wind Dir Waves Ship Positions

Svartfoss

Last reported at 2015-Jul-02 14:33 UTC. Time now 2015-Jul-06 13:30 UTC.
Position N 69°41' E 018°59'.

Length 80 m; draft 5.6 m.

Type: Cargo ship. MMSI: 304882000.

Date/timePositionNaut miles runAvg speedWind from/ knotsBaromVisibWave heightAir tempDewpointWater temp
2015-Jul-02 14:33N 69°41' E 018°59'1 0.6
2015-Jul-02 13:33N 69°40' E 018°59'1 0.8
2015-Jul-02 12:33N 69°39' E 018°58'206 7.0
2015-Jul-01 07:13N 66°57' E 013°19'14 3.8
2015-Jul-01 03:25N 66°43' E 013°06'1314.3
2015-Jul-01 02:33N 66°38' E 012°37'1413.8
2015-Jul-01 01:33N 66°30' E 012°10'2 2.0
2015-Jul-01 00:33N 66°30' E 012°05'1110.7
2015-Jun-30 23:33N 66°25' E 012°30'65 5.8
2015-Jun-30 12:21N 65°21' E 012°03'1214.3
2015-Jun-30 11:30N 65°10' E 011°51'1313.9
2015-Jun-30 10:33N 64°59' E 011°35'1111.4
2015-Jun-30 09:33N 64°52' E 011°14'0 0.0
2015-Jun-30 08:33N 64°52' E 011°14'5412.8
2015-Jun-30 04:21N 64°07' E 010°03'1013.0
2015-Jun-30 03:33N 63°60' E 009°47'1212.3
2015-Jun-30 02:33N 63°48' E 009°36'1 1.2
2015-Jun-30 01:33N 63°49' E 009°38'0 0.0
2015-Jun-30 00:33N 63°49' E 009°38'0 0.0
2015-Jun-29 23:33N 63°49' E 009°38'0 0.0
2015-Jun-29 22:33N 63°49' E 009°38'0 0.0
2015-Jun-29 21:09N 63°49' E 009°38'0 0.7
2015-Jun-29 20:33N 63°49' E 009°38'1613.0
2015-Jun-29 19:22N 63°34' E 009°24'5314.0
2015-Jun-29 15:33N 63°06' E 007°43'1 0.8
2015-Jun-29 14:33N 63°07' E 007°44'0 0.0
2015-Jun-29 13:33N 63°07' E 007°44'0 0.0
2015-Jun-29 12:33N 63°07' E 007°44'0 0.0
2015-Jun-29 11:34N 63°07' E 007°44'243 6.4
2015-Jun-27 21:33N 59°14' E 005°21'1413.7
2015-Jun-27 20:33N 59°03' E 005°36'1010.4
2015-Jun-27 19:33N 58°53' E 005°46'2 2.0
2015-Jun-27 18:34N 58°52' E 005°45'0 0.3
2015-Jun-27 17:33N 58°51' E 005°45'2 2.4
2015-Jun-27 16:33N 58°54' E 005°46'9 9.3
2015-Jun-27 15:33N 59°02' E 005°37'6 6.4
2015-Jun-27 14:32N 58°55' E 005°36'0 0.0
2015-Jun-27 13:24N 58°55' E 005°36'0 0.0
2015-Jun-27 12:32N 58°55' E 005°36'0 0.0
2015-Jun-27 11:23N 58°55' E 005°36'1 0.9
2015-Jun-27 10:28N 58°56' E 005°35'26613.1
2015-Jun-26 14:14N 57°09' W 002°05'0 0.0
2015-Jun-26 13:26N 57°09' W 002°05'0 0.0
2015-Jun-26 10:26N 57°09' W 002°05'0 0.0
2015-Jun-26 09:26N 57°09' W 002°05'0 0.0
2015-Jun-26 08:08N 57°09' W 002°05'0 0.0
2015-Jun-26 07:26N 57°09' W 002°05'16013.5
2015-Jun-25 19:33N 54°41' W 000°19'1414.4
2015-Jun-25 18:33N 54°27' W 000°10'1514.8
2015-Jun-25 17:33N 54°13' W 000°00'1515.2
2015-Jun-25 16:33N 53°59' E 000°09'2713.1
2015-Jun-25 14:31N 53°33' E 000°12'1414.3
2015-Jun-25 13:33N 53°38' W 000°10'1 1.3
2015-Jun-25 12:34N 53°38' W 000°12'0 0.0
2015-Jun-25 11:32N 53°38' W 000°12'0 0.0
2015-Jun-25 10:32N 53°38' W 000°12'0 0.0
2015-Jun-25 09:32N 53°38' W 000°12'0 0.0
2015-Jun-25 08:29N 53°38' W 000°12'0 0.0
2015-Jun-25 07:31N 53°38' W 000°12'0 0.0
2015-Jun-25 06:31N 53°38' W 000°12'0 0.0
2015-Jun-25 05:31N 53°38' W 000°12'0 0.0
2015-Jun-25 04:31N 53°38' W 000°12'0 0.0
2015-Jun-25 03:31N 53°38' W 000°12'0 0.0
2015-Jun-25 02:31N 53°38' W 000°12'0 0.0
2015-Jun-25 01:31N 53°38' W 000°12'0 0.0
2015-Jun-25 00:31N 53°38' W 000°12'0 0.0
2015-Jun-24 23:31N 53°38' W 000°12'0 0.0
2015-Jun-24 22:31N 53°38' W 000°12'0 0.0
2015-Jun-24 21:31N 53°38' W 000°12'0 0.0
2015-Jun-24 20:31N 53°38' W 000°12'0 0.0
2015-Jun-24 19:31N 53°38' W 000°12'0 0.0
2015-Jun-24 18:28N 53°38' W 000°12'0 0.0
2015-Jun-24 17:28N 53°38' W 000°12'0 0.0
2015-Jun-24 16:28N 53°38' W 000°12'0 0.0
2015-Jun-24 15:31N 53°38' W 000°12'0 0.0
2015-Jun-24 14:31N 53°38' W 000°12'0 0.0
2015-Jun-24 13:31N 53°38' W 000°12'0 0.0
2015-Jun-24 12:25N 53°38' W 000°12'0 0.0
2015-Jun-24 11:31N 53°38' W 000°12'0 0.0
2015-Jun-24 10:29N 53°38' W 000°12'0 0.0
2015-Jun-24 09:31N 53°38' W 000°12'0 0.0
2015-Jun-24 08:31N 53°38' W 000°12'0 0.0
2015-Jun-24 07:31N 53°38' W 000°12'0 0.0
2015-Jun-24 06:31N 53°38' W 000°12'0 0.0
2015-Jun-24 05:31N 53°38' W 000°12'0 0.0
2015-Jun-24 04:31N 53°38' W 000°12'0 0.0
2015-Jun-24 03:31N 53°38' W 000°12'0 0.0
2015-Jun-24 02:31N 53°38' W 000°12'0 0.0
2015-Jun-24 01:31N 53°38' W 000°12'0 0.0
2015-Jun-24 00:34N 53°38' W 000°12'0 0.0
2015-Jun-23 23:34N 53°38' W 000°12'0 0.0
2015-Jun-23 22:33N 53°38' W 000°12'0 0.0
2015-Jun-23 21:30N 53°38' W 000°12'0 0.0
2015-Jun-23 20:33N 53°38' W 000°12'0 0.0
2015-Jun-23 19:27N 53°38' W 000°12'0 0.0
2015-Jun-23 19:03N 53°38' W 000°12'189 8.0
2015-Jun-22 19:31N 52°28' E 004°40'0 0.0
2015-Jun-22 18:31N 52°28' E 004°40'0 0.0
2015-Jun-22 17:31N 52°28' E 004°40'0 0.0
2015-Jun-22 16:31N 52°28' E 004°40'0 0.0
2015-Jun-22 15:31N 52°28' E 004°40'  

Dump ship's entire track history